North Fork, ID

9:33 AM MDT on July 24, 2014 (GMT -0600)
RAWS KRILEY CREEK ID US (MKRCI1) Elev 5200 ft | 45.36 °N, 113.90 °W | Change Station

Current weather conditions updated 42 minutes ago

Clear
Clear
59 °F
Feels Like 59 °F
N
10
Wind Variable Wind from NNE
Gusts 20.0 mph

Today is forecast to be Much Cooler than yesterday.

Today
High -- | Low -- °F
--% Chance of Precip.
Yesterday
High -- | Low -- °F
Precip. -- in
6:10 AM 9:12 PM
Waning Crescent, 5% visible
Pressure 30.00 in
Visibility 10.0 miles
Clouds Clear
Dew Point 43 °F
Humidity 55%
Rainfall 0.01 in
Snow Depth Not available.
UV 3 out of 12
Pollen 5.40 out of 12
Air Quality Not available.
Flu Activity Not available.
METAR KSMN 241515Z AUTO 22003KT 10SM CLR 19/09 A3000 RMK AO1

More Conditions Fewer Conditions

Pressure 30.00 in
Visibility 10.0 miles
Clouds Clear
Dew Point 43 °F
Humidity 55%
Rainfall 0.01 in
Snow Depth Not available.
UV 3 out of 12
Pollen 5.40 out of 12
Air Quality Not available.
Flu Activity Not available.
METAR KSMN 241515Z AUTO 22003KT 10SM CLR 19/09 A3000 RMK AO1

More Conditions Fewer Conditions

10-Day Weather Forecast

Almanac

Astronomy

Jul. 24, 2014 Rise Set
Actual Time 6:10 AM MDT 9:12 PM MDT
Civil Twilight 5:35 AM MDT 9:47 PM MDT
Nautical Twilight 4:50 AM MDT 10:32 PM MDT
Astronomical Twilight 3:56 AM MDT 11:26 PM MDT
Moon 4:23 AM MDT 7:28 PM MDT
Length of Visible Light 16h 11m
Length of Day
15h 01m
Tomorrow will be 2m 9s shorter.
Waning Crescent, 5% of the Moon is Illuminated
Today
Waning Crescent
Jul 26
New
Aug 3
First Quarter
Aug 10
Full
Aug 17
Last Quarter

Today's Extremes

State Highs State Lows

Community

WunderPhotos

Upload Photos

1,737,042 photos uploaded!

Nearby

Snow Depth

Station Depth Elevation
Morgan Creek 0 in 7600 ft
Smiley Mountain 1 in 9520 ft
Mill Creek Summit 1 in 8800 ft
Moonshine 1 in 7440 ft
Savage Pass 1 in 6170 ft

Earthquake Activity

City Distance Mag. Time & Date
No recent earthquake activity has been reported nearby.
Minimum magnitude displayed is 2.5.

Coastal Water Temperatures

Place Temperature
No Stations Reporting

Nearby Weather Stations

Station Location Temp. Dew Point Humidity Wind Precip. Elev Updated Type
RAWS KRILEY CREEK ID, North Fork, ID 59 °F 43 °F 55% NNE  at  10 mph 0.00 in / hr 5200 ft 8:51 AM MDT MADIS
RAWS SALMON ID, Salmon, ID 65 °F 45 °F 48% SE  at  3 mph 0.00 in / hr 5100 ft 8:36 AM MDT MADIS
ITD Lost Trail Pass ID , Sula, MT 57 °F 46 °F 68% SW  at  3 mph 0.00 in / hr 7089 ft 8:45 AM MDT MADIS
RAWS INDIANOLA ID, Gibbonsville, ID 69 °F 47 °F 46% ESE  at  1 mph 0.00 in / hr 3528 ft 9:04 AM MDT MADIS

Show More Stations Show Fewer Stations